KRQB

Roben-Hood Airport

Big Rapids, Michigan, USA
METAR KRQB 201235Z AUTO 25005KT 10SM CLR 01/M02 A2979 RMK AO2 T00101025
Observed Flight Rules
Jan-20 @ 12:35 UTC (30 minutes ago) Visual Flight Rules
Wind Visibility Clouds
250° at 5 knots 10 miles
  • Clear skies
Temperatures Readings
Current 1°C / 34°F
Dewpoint -3°C / 27°F
Humidity 75%
Altimeter 29.79" Hg
Pressure 1009 hPa
Elevation 302
METAR KRQB 201235Z AUTO 25005KT 10SM CLR 01/M02 A2979 RMK AO2 T00101025
Observed Flight Rules
Jan-20 @ 12:35 UTC
(30 minutes ago)
VFR
Wind Visibility
250° at 5 knots 10 miles
Clouds
  • Clear skies
Temperature Dewpoint
1°C / 34°F -3°C / 27°F
Humidity Altimeter Pressure
75% 29.79" Hg 1009 hPa